Time;durP1;ratioP1;P1;durP2;ratioP2;P2;SDS_P1;SDS_P2;PMS_P1;PMS_P2;Temp;Humidity;BMP_temperature;BMP_pressure;BME280_temperature;BME280_humidity;BME280_pressure;Samples;Min_cycle;Max_cycle;Signal;HPM_P1;HPM_P2
2023/12/17 00:01:03;;;;;;;76.65;31.77;;;;;;;8.14;100.00;103519.34;6304990;22;20011;-84
2023/12/17 00:03:28;;;;;;;73.40;31.65;;;;;;;7.90;100.00;103477.00;6305406;22;20444;-84
2023/12/17 00:05:54;;;;;;;87.07;35.60;;;;;;;7.98;100.00;103489.66;6306881;22;20007;-84
2023/12/17 00:08:20;;;;;;;74.63;30.85;;;;;;;8.00;100.00;103475.22;6304936;22;19999;-85
2023/12/17 00:10:48;;;;;;;81.80;31.80;;;;;;;7.96;100.00;103476.47;6304941;22;20521;-84
2023/12/17 00:13:17;;;;;;;64.50;27.10;;;;;;;8.09;100.00;103505.56;6305221;22;20008;-84
2023/12/17 00:15:48;;;;;;;71.65;29.73;;;;;;;8.15;100.00;103501.53;6307510;22;20010;-86
2023/12/17 00:18:14;;;;;;;56.83;23.77;;;;;;;7.92;100.00;103458.22;6304420;22;20027;-84
2023/12/17 00:20:40;;;;;;;64.18;27.02;;;;;;;8.02;100.00;103473.28;6304975;22;20015;-84
2023/12/17 00:23:05;;;;;;;50.72;22.70;;;;;;;8.07;100.00;103475.53;6304852;22;20034;-85
2023/12/17 00:25:34;;;;;;;61.55;26.70;;;;;;;8.07;100.00;103468.38;6304480;22;20435;-84
2023/12/17 00:27:59;;;;;;;65.30;28.20;;;;;;;8.02;100.00;103457.28;6304946;22;20082;-83
2023/12/17 00:30:24;;;;;;;55.95;25.10;;;;;;;8.11;100.00;103465.50;6306126;22;20027;-84
2023/12/17 00:32:52;;;;;;;51.03;22.02;;;;;;;8.06;100.00;103452.53;6306376;22;20007;-84
2023/12/17 00:35:18;;;;;;;48.53;23.48;;;;;;;8.00;100.00;103442.41;6306028;22;20016;-84
2023/12/17 00:37:45;;;;;;;55.25;25.10;;;;;;;7.90;100.00;103433.53;6304499;22;20018;-84
2023/12/17 00:40:11;;;;;;;65.43;29.77;;;;;;;8.01;100.00;103449.44;6304401;22;20031;-83
2023/12/17 00:42:36;;;;;;;63.38;29.30;;;;;;;8.11;100.00;103466.31;6306145;22;20090;-83
2023/12/17 00:45:02;;;;;;;56.53;26.35;;;;;;;8.15;100.00;103464.25;6306012;22;20010;-83
2023/12/17 00:47:27;;;;;;;52.70;24.58;;;;;;;8.07;100.00;103454.22;6330224;22;20101;-81
2023/12/17 00:49:53;;;;;;;56.95;24.65;;;;;;;8.20;100.00;103472.66;6305870;22;19999;-82
2023/12/17 00:52:22;;;;;;;56.22;26.08;;;;;;;8.23;100.00;103483.06;6305915;22;20081;-82
2023/12/17 00:54:48;;;;;;;54.10;25.83;;;;;;;8.19;100.00;103471.81;6305945;22;20011;-84
2023/12/17 00:57:13;;;;;;;55.35;25.88;;;;;;;8.17;100.00;103465.78;6304183;22;20436;-83
2023/12/17 00:59:39;;;;;;;59.15;26.30;;;;;;;8.16;100.00;103471.25;6305272;22;20066;-82
2023/12/17 01:02:04;;;;;;;63.83;27.80;;;;;;;8.16;100.00;103461.44;6303951;22;20003;-82
2023/12/17 01:04:29;;;;;;;61.33;26.42;;;;;;;8.15;100.00;103453.56;6305699;22;20030;-84
2023/12/17 01:06:55;;;;;;;66.25;33.92;;;;;;;8.17;100.00;103449.81;6304166;22;20030;-83
2023/12/17 01:09:20;;;;;;;59.92;28.58;;;;;;;8.19;100.00;103442.50;6304039;22;20011;-84
2023/12/17 01:11:45;;;;;;;63.53;26.90;;;;;;;8.18;100.00;103442.66;6303989;22;19999;-83
2023/12/17 01:14:11;;;;;;;55.85;23.85;;;;;;;8.11;100.00;103426.34;6305795;22;20007;-84
2023/12/17 01:16:38;;;;;;;62.08;31.10;;;;;;;8.15;100.00;103446.44;6305673;22;20360;-86
2023/12/17 01:19:03;;;;;;;51.67;22.55;;;;;;;8.10;100.00;103427.34;6303724;22;20007;-84
2023/12/17 01:21:29;;;;;;;62.47;27.02;;;;;;;8.17;100.00;103457.78;6305697;22;20103;-85
2023/12/17 01:23:57;;;;;;;61.97;27.17;;;;;;;8.13;100.00;103439.53;6304108;22;20057;-83
2023/12/17 01:26:23;;;;;;;57.85;24.50;;;;;;;8.17;100.00;103457.78;6304471;22;20090;-84
2023/12/17 01:28:52;;;;;;;55.15;24.05;;;;;;;8.14;100.00;103460.72;6304105;22;20102;-85
2023/12/17 01:31:17;;;;;;;56.92;24.73;;;;;;;8.13;100.00;103455.53;6304210;22;20027;-84
2023/12/17 01:33:43;;;;;;;55.28;23.95;;;;;;;8.19;100.00;103473.66;6305643;22;20015;-85
2023/12/17 01:36:08;;;;;;;63.35;28.23;;;;;;;8.17;100.00;103470.28;6305608;22;20003;-85
2023/12/17 01:38:34;;;;;;;57.30;25.30;;;;;;;8.16;100.00;103465.94;6305914;22;20053;-83
2023/12/17 01:40:59;;;;;;;62.53;25.88;;;;;;;8.20;100.00;103480.66;6303980;22;20004;-84
2023/12/17 01:43:25;;;;;;;57.08;24.70;;;;;;;8.16;100.00;103473.91;6330251;22;20015;-84
2023/12/17 01:45:53;;;;;;;58.25;27.15;;;;;;;8.22;100.00;103478.72;6305602;22;20066;-84
2023/12/17 01:48:19;;;;;;;56.67;25.40;;;;;;;8.26;100.00;103480.97;6305540;22;20015;-85
2023/12/17 01:50:45;;;;;;;57.63;25.40;;;;;;;8.24;100.00;103482.09;6303964;22;20184;-84
2023/12/17 01:53:12;;;;;;;58.20;25.55;;;;;;;8.27;100.00;103477.31;6305621;22;20007;-86
2023/12/17 01:55:37;;;;;;;55.97;24.95;;;;;;;8.22;100.00;103487.56;6305633;22;20030;-87
2023/12/17 01:58:03;;;;;;;55.30;24.65;;;;;;;8.20;100.00;103484.19;6305842;22;20417;-88
2023/12/17 02:00:29;;;;;;;50.65;23.30;;;;;;;8.22;100.00;103490.22;6330185;22;20033;-88
2023/12/17 02:02:54;;;;;;;50.78;23.13;;;;;;;8.21;100.00;103483.19;6305653;22;20003;-87
2023/12/17 02:05:20;;;;;;;50.83;24.48;;;;;;;8.20;100.00;103489.50;6303938;22;20033;-87
2023/12/17 02:07:45;;;;;;;49.28;22.42;;;;;;;8.15;100.00;103485.56;6304255;22;20038;-87
2023/12/17 02:10:11;;;;;;;49.33;22.63;;;;;;;8.19;100.00;103489.66;6303947;22;20031;-88
2023/12/17 02:12:36;;;;;;;51.15;21.63;;;;;;;8.12;100.00;103486.66;6303826;22;20008;-87
2023/12/17 02:15:02;;;;;;;50.60;22.02;;;;;;;8.19;100.00;103492.31;6305509;22;20004;-86
2023/12/17 02:17:29;;;;;;;46.45;21.27;;;;;;;8.15;100.00;103477.56;6305450;22;20042;-87
2023/12/17 02:19:55;;;;;;;53.88;22.92;;;;;;;8.17;100.00;103486.28;6305376;22;20432;-86
2023/12/17 02:22:22;;;;;;;49.72;22.88;;;;;;;8.20;100.00;103480.66;6305665;22;20061;-87
2023/12/17 02:24:48;;;;;;;48.78;21.55;;;;;;;8.25;100.00;103476.63;6303864;22;20018;-87
2023/12/17 02:27:22;;;;;;;49.10;21.92;;;;;;;8.18;100.00;103466.63;6303937;22;20003;-86
2023/12/17 02:29:48;;;;;;;48.90;22.05;;;;;;;8.21;100.00;103471.69;6305365;22;20329;-84
2023/12/17 02:32:14;;;;;;;47.97;23.50;;;;;;;8.21;100.00;103467.22;6303950;22;20007;-85
2023/12/17 02:34:40;;;;;;;47.92;20.70;;;;;;;8.19;100.00;103473.66;6303658;22;20007;-84
2023/12/17 02:37:05;;;;;;;53.00;22.20;;;;;;;8.21;100.00;103479.69;6305308;22;20162;-87
2023/12/17 02:39:30;;;;;;;45.42;22.10;;;;;;;8.17;100.00;103475.59;6303402;22;20004;-83
2023/12/17 02:41:56;;;;;;;44.80;20.88;;;;;;;8.21;100.00;103472.53;6305276;22;20003;-83
2023/12/17 02:44:21;;;;;;;43.85;22.50;;;;;;;8.20;100.00;103478.84;6305352;22;20049;-84
2023/12/17 02:46:46;;;;;;;42.40;19.45;;;;;;;8.20;100.00;103475.34;6303753;22;20030;-83
2023/12/17 02:49:13;;;;;;;44.58;20.60;;;;;;;8.17;100.00;103468.44;6303525;22;20090;-82
2023/12/17 02:51:39;;;;;;;45.65;21.52;;;;;;;8.18;100.00;103472.81;6303403;22;20057;-82
2023/12/17 02:54:04;;;;;;;47.30;20.95;;;;;;;8.13;100.00;103474.19;6304950;22;20007;-82
2023/12/17 02:56:29;;;;;;;48.55;20.50;;;;;;;8.20;100.00;103480.66;6303514;22;20007;-82
2023/12/17 02:58:55;;;;;;;42.20;19.65;;;;;;;8.14;100.00;103471.38;6304902;22;20181;-86
2023/12/17 03:01:20;;;;;;;46.83;20.08;;;;;;;8.11;100.00;103463.66;6305153;22;20098;-84
2023/12/17 03:03:45;;;;;;;49.20;21.05;;;;;;;8.12;100.00;103467.16;6304999;22;19999;-85
2023/12/17 03:06:11;;;;;;;42.17;19.58;;;;;;;8.11;100.00;103463.66;6303230;22;20340;-85
2023/12/17 03:08:38;;;;;;;45.80;20.48;;;;;;;8.15;100.00;103477.56;6303297;22;20444;-84
2023/12/17 03:11:03;;;;;;;57.55;26.02;;;;;;;8.14;100.00;103470.53;6304922;22;20007;-83
2023/12/17 03:13:30;;;;;;;49.13;21.88;;;;;;;8.11;100.00;103469.00;6303332;22;20336;-85
2023/12/17 03:15:55;;;;;;;50.95;23.52;;;;;;;8.10;100.00;103464.66;6303263;22;20007;-84
2023/12/17 03:18:20;;;;;;;53.65;22.35;;;;;;;8.12;100.00;103461.84;6304727;22;20011;-85
2023/12/17 03:20:46;;;;;;;48.50;21.80;;;;;;;8.06;100.00;103447.19;6303309;22;20018;-85
2023/12/17 03:23:11;;;;;;;57.38;24.65;;;;;;;8.08;100.00;103455.91;6305245;22;20089;-85
2023/12/17 03:25:36;;;;;;;51.97;23.85;;;;;;;8.06;100.00;103455.19;6304663;22;20082;-84
2023/12/17 03:28:02;;;;;;;57.80;23.70;;;;;;;8.03;100.00;103442.16;6304831;22;20003;-84
2023/12/17 03:30:27;;;;;;;59.72;25.52;;;;;;;8.03;100.00;103448.31;6306430;22;20057;-85
2023/12/17 03:32:52;;;;;;;56.10;24.13;;;;;;;8.03;100.00;103447.47;6306094;22;20336;-83
2023/12/17 03:35:18;;;;;;;60.47;22.83;;;;;;;8.01;100.00;103444.09;6304700;22;20440;-83
2023/12/17 03:37:43;;;;;;;63.70;26.05;;;;;;;7.99;100.00;103444.25;6306422;22;20003;-84
2023/12/17 03:40:09;;;;;;;54.85;24.90;;;;;;;7.99;100.00;103444.25;6304769;22;20390;-84
2023/12/17 03:42:34;;;;;;;55.15;22.40;;;;;;;8.02;100.00;103443.13;6304694;22;20011;-85
2023/12/17 03:44:59;;;;;;;52.08;22.33;;;;;;;7.99;100.00;103438.06;6304793;22;20074;-84
2023/12/17 03:47:25;;;;;;;51.88;21.08;;;;;;;8.01;100.00;103434.28;6306141;22;20003;-83
2023/12/17 03:49:50;;;;;;;51.60;21.90;;;;;;;7.99;100.00;103435.41;6306191;22;19999;-84
2023/12/17 03:52:16;;;;;;;43.20;19.05;;;;;;;8.01;100.00;103436.09;6306130;22;20424;-82
2023/12/17 03:54:41;;;;;;;44.38;18.35;;;;;;;8.03;100.00;103427.00;6306623;22;20007;-85
2023/12/17 03:57:07;;;;;;;36.83;16.38;;;;;;;8.05;100.00;103432.19;6304499;22;20007;-86
2023/12/17 03:59:32;;;;;;;44.42;19.10;;;;;;;8.03;100.00;103428.81;6306112;22;20069;-85
2023/12/17 04:02:01;;;;;;;40.50;18.25;;;;;;;8.00;100.00;103426.44;6306234;22;20019;-86
2023/12/17 04:04:27;;;;;;;39.55;17.58;;;;;;;8.01;100.00;103422.78;6306136;22;20003;-84
2023/12/17 04:06:52;;;;;;;38.63;16.33;;;;;;;7.97;100.00;103410.72;6306271;22;20010;-83
2023/12/17 04:09:19;;;;;;;39.08;15.80;;;;;;;8.01;100.00;103412.13;6304653;22;20015;-84
2023/12/17 04:11:44;;;;;;;34.88;16.17;;;;;;;7.98;100.00;103402.59;6305890;22;20306;-85
2023/12/17 04:14:09;;;;;;;31.77;14.55;;;;;;;8.00;100.00;103413.94;6304443;22;20087;-85
2023/12/17 04:16:35;;;;;;;35.40;15.27;;;;;;;7.94;100.00;103411.81;6306178;22;20004;-84
2023/12/17 04:19:00;;;;;;;35.28;14.30;;;;;;;7.93;100.00;103407.47;6304439;22;20088;-85
2023/12/17 04:21:25;;;;;;;33.97;16.80;;;;;;;7.98;100.00;103412.41;6306245;22;20003;-84
2023/12/17 04:23:51;;;;;;;41.80;17.73;;;;;;;7.92;100.00;103403.13;6304556;22;20012;-85
2023/12/17 04:26:17;;;;;;;36.95;19.08;;;;;;;7.94;100.00;103405.66;6306173;22;20007;-85
2023/12/17 04:28:42;;;;;;;36.72;18.20;;;;;;;7.94;100.00;103405.66;6306044;22;20010;-85
2023/12/17 04:31:07;;;;;;;36.60;18.27;;;;;;;7.89;100.00;103400.72;6304415;22;20003;-86
2023/12/17 04:33:33;;;;;;;39.30;17.77;;;;;;;7.86;100.00;103386.84;6304626;22;20340;-86
2023/12/17 04:35:58;;;;;;;40.97;19.20;;;;;;;7.86;100.00;103393.00;6305223;22;20083;-86
2023/12/17 04:38:23;;;;;;;34.00;13.85;;;;;;;7.85;100.00;103388.66;6304305;22;20007;-84
2023/12/17 04:40:49;;;;;;;36.70;14.93;;;;;;;7.88;100.00;103391.06;6304327;22;20010;-84
2023/12/17 04:43:15;;;;;;;37.80;15.73;;;;;;;7.87;100.00;103378.72;6306175;22;20451;-85
2023/12/17 04:45:40;;;;;;;32.28;13.88;;;;;;;7.96;100.00;103401.03;6306014;22;20017;-85
2023/12/17 04:48:06;;;;;;;35.78;15.05;;;;;;;7.90;100.00;103398.91;6305988;22;20003;-85
2023/12/17 04:50:31;;;;;;;36.60;14.48;;;;;;;7.84;100.00;103394.13;6305654;22;20060;-85
2023/12/17 04:52:57;;;;;;;34.92;14.57;;;;;;;7.83;100.00;103393.28;6304212;22;20056;-85
2023/12/17 04:55:22;;;;;;;42.90;18.10;;;;;;;7.77;100.00;103389.31;6304443;22;20344;-85
2023/12/17 04:57:48;;;;;;;41.10;18.00;;;;;;;7.85;100.00;103399.31;6304489;22;20010;-86
2023/12/17 05:00:14;;;;;;;37.80;15.77;;;;;;;7.84;100.00;103394.97;6304496;22;20107;-86
2023/12/17 05:02:39;;;;;;;40.20;17.55;;;;;;;7.83;100.00;103397.75;6306009;22;20061;-86
2023/12/17 05:05:05;;;;;;;38.92;15.80;;;;;;;7.83;100.00;103395.09;6304241;22;20428;-85
2023/12/17 05:07:30;;;;;;;41.10;17.20;;;;;;;7.80;100.00;103390.84;6305931;22;20007;-85
2023/12/17 05:09:57;;;;;;;43.50;18.70;;;;;;;7.76;100.00;103389.44;6304350;22;20443;-87
2023/12/17 05:12:22;;;;;;;43.05;16.70;;;;;;;7.80;100.00;103393.53;6304556;22;20334;-85
2023/12/17 05:14:47;;;;;;;38.83;16.13;;;;;;;7.76;100.00;103381.44;6306057;22;19999;-86
2023/12/17 05:17:13;;;;;;;37.80;16.08;;;;;;;7.72;100.00;103380.88;6304334;22;20011;-86
2023/12/17 05:19:38;;;;;;;38.35;16.75;;;;;;;7.76;100.00;103386.78;6304196;22;20011;-85
2023/12/17 05:22:04;;;;;;;36.50;15.43;;;;;;;7.71;100.00;103384.50;6304242;22;20015;-84
2023/12/17 05:24:29;;;;;;;41.42;17.30;;;;;;;7.73;100.00;103393.22;6305846;22;20053;-84
2023/12/17 05:26:54;;;;;;;46.67;20.50;;;;;;;7.69;100.00;103402.44;6305927;22;20014;-87
2023/12/17 05:29:19;;;;;;;36.63;18.35;;;;;;;7.67;100.00;103385.75;6305820;22;20057;-86
2023/12/17 05:31:45;;;;;;;33.08;16.10;;;;;;;7.78;100.00;103396.31;6304198;22;20432;-87
2023/12/17 05:34:10;;;;;;;40.50;15.30;;;;;;;7.72;100.00;103390.69;6304367;22;20031;-87
2023/12/17 05:36:36;;;;;;;34.38;14.50;;;;;;;7.77;100.00;103407.09;6305809;22;19999;-86
2023/12/17 05:39:01;;;;;;;32.70;14.27;;;;;;;7.73;100.00;103401.19;6305690;22;20082;-86
2023/12/17 05:41:27;;;;;;;29.15;12.98;;;;;;;7.75;100.00;103391.25;6305638;22;20003;-87
2023/12/17 05:43:52;;;;;;;37.72;14.93;;;;;;;7.75;100.00;103391.25;6305797;22;20014;-86
2023/12/17 05:46:17;;;;;;;34.00;15.00;;;;;;;7.76;100.00;103402.75;6303845;22;20007;-87
2023/12/17 05:48:42;;;;;;;38.38;15.95;;;;;;;7.73;100.00;103387.88;6304207;22;20007;-86
2023/12/17 05:51:08;;;;;;;38.72;16.27;;;;;;;7.68;100.00;103374.13;6306111;22;20007;-86
2023/12/17 05:53:34;;;;;;;34.92;15.35;;;;;;;7.70;100.00;103380.16;6305784;22;20388;-86
2023/12/17 05:56:00;;;;;;;39.53;18.58;;;;;;;7.67;100.00;103382.25;6304416;22;20060;-87
2023/12/17 05:58:25;;;;;;;30.63;14.55;;;;;;;7.70;100.00;103388.16;6306101;22;20003;-88
2023/12/17 06:00:51;;;;;;;33.97;16.95;;;;;;;7.68;100.00;103384.78;6306988;22;20027;-88
2023/12/17 06:03:16;;;;;;;35.75;16.52;;;;;;;7.73;100.00;103392.38;6305992;22;20079;-85
2023/12/17 06:05:41;;;;;;;27.52;13.50;;;;;;;7.64;100.00;103382.50;6303997;22;20003;-85
2023/12/17 06:08:07;;;;;;;29.83;15.05;;;;;;;7.68;100.00;103389.25;6303898;22;20007;-85
2023/12/17 06:10:32;;;;;;;30.60;15.43;;;;;;;7.64;100.00;103394.00;6305705;22;20314;-85
2023/12/17 06:12:57;;;;;;;29.75;15.02;;;;;;;7.64;100.00;103383.34;6305289;22;20056;-85
2023/12/17 06:15:23;;;;;;;28.70;15.52;;;;;;;7.64;100.00;103394.00;6303795;22;20035;-85
2023/12/17 06:17:48;;;;;;;30.35;17.45;;;;;;;7.62;100.00;103389.78;6305353;22;20003;-88
2023/12/17 06:20:14;;;;;;;26.73;13.65;;;;;;;7.60;100.00;103403.25;6305413;22;20030;-86
2023/12/17 06:22:40;;;;;;;23.00;12.15;;;;;;;7.62;100.00;103403.94;6304101;22;20007;-86
2023/12/17 06:25:05;;;;;;;22.15;11.82;;;;;;;7.63;100.00;103388.81;6305451;22;20007;-85
2023/12/17 06:27:31;;;;;;;19.23;9.85;;;;;;;7.67;100.00;103403.56;6305410;22;20456;-86
2023/12/17 06:29:57;;;;;;;24.48;11.95;;;;;;;7.65;100.00;103398.34;6305322;22;20038;-83
2023/12/17 06:32:22;;;;;;;19.80;10.05;;;;;;;7.65;100.00;103402.84;6303789;22;20091;-85
2023/12/17 06:34:48;;;;;;;21.30;11.57;;;;;;;7.61;100.00;103399.59;6303803;22;20003;-85
2023/12/17 06:37:13;;;;;;;20.17;11.77;;;;;;;7.64;100.00;103401.16;6303518;22;20010;-84
2023/12/17 06:39:42;;;;;;;20.08;10.52;;;;;;;7.66;100.00;103412.53;6303625;22;20015;-83
2023/12/17 06:42:09;;;;;;;22.50;12.23;;;;;;;7.61;100.00;103415.56;6305185;22;20003;-84
2023/12/17 06:44:34;;;;;;;18.88;10.65;;;;;;;7.70;100.00;103414.78;6303527;22;20007;-84
2023/12/17 06:46:59;;;;;;;18.95;10.52;;;;;;;7.61;100.00;103407.59;6305064;22;20432;-83
2023/12/17 06:49:25;;;;;;;20.00;9.77;;;;;;;7.65;100.00;103427.66;6305073;22;20328;-85
2023/12/17 06:51:50;;;;;;;18.30;9.88;;;;;;;7.56;100.00;103401.81;6305031;22;20041;-84
2023/12/17 06:54:15;;;;;;;19.27;10.88;;;;;;;7.61;100.00;103420.91;6304985;22;20088;-84
2023/12/17 06:56:42;;;;;;;19.92;10.88;;;;;;;7.59;100.00;103403.38;6303440;22;20422;-82
2023/12/17 06:59:07;;;;;;;21.17;10.30;;;;;;;7.55;100.00;103394.81;6304250;22;20344;-84
2023/12/17 07:01:33;;;;;;;18.35;10.23;;;;;;;7.56;100.00;103404.47;6304940;22;20007;-85
2023/12/17 07:03:58;;;;;;;19.88;11.45;;;;;;;7.54;100.00;103411.75;6306571;22;20003;-85
2023/12/17 07:06:23;;;;;;;17.38;10.40;;;;;;;7.52;100.00;103408.38;6305123;22;20007;-85
2023/12/17 07:08:49;;;;;;;22.23;11.52;;;;;;;7.53;100.00;103399.41;6306517;22;20007;-87
2023/12/17 07:11:14;;;;;;;17.35;10.95;;;;;;;7.58;100.00;103404.34;6306402;22;20003;-87
2023/12/17 07:13:40;;;;;;;21.42;11.88;;;;;;;7.50;100.00;103404.97;6305026;22;20003;-88
2023/12/17 07:16:06;;;;;;;22.38;13.32;;;;;;;7.48;100.00;103409.59;6307007;22;20458;-87
2023/12/17 07:18:31;;;;;;;22.48;13.13;;;;;;;7.52;100.00;103407.50;6306405;22;20339;-90
2023/12/17 07:20:56;;;;;;;21.10;13.60;;;;;;;7.52;100.00;103402.19;6306410;22;20007;-86
2023/12/17 07:23:24;;;;;;;21.52;14.15;;;;;;;7.50;100.00;103407.66;6306504;22;20317;-86
2023/12/17 07:25:49;;;;;;;19.30;11.95;;;;;;;7.50;100.00;103418.28;6304914;22;20007;-84
2023/12/17 07:28:15;;;;;;;16.65;11.48;;;;;;;7.55;100.00;103433.91;6304828;22;20344;-86
2023/12/17 07:30:40;;;;;;;16.60;10.23;;;;;;;7.46;100.00;103436.34;6304716;22;20011;-82
2023/12/17 07:33:06;;;;;;;14.77;9.10;;;;;;;7.44;100.00;103416.16;6306230;22;20003;-84
2023/12/17 07:35:31;;;;;;;18.50;10.38;;;;;;;7.48;100.00;103433.56;6304714;22;20010;-85
2023/12/17 07:37:57;;;;;;;15.35;9.90;;;;;;;7.42;100.00;103426.94;6304887;22;20008;-85
2023/12/17 07:40:22;;;;;;;15.63;8.88;;;;;;;7.47;100.00;103429.19;6306483;22;20010;-85
2023/12/17 07:42:47;;;;;;;15.07;8.93;;;;;;;7.47;100.00;103440.69;6306173;22;20007;-83
2023/12/17 07:45:13;;;;;;;17.15;9.55;;;;;;;7.47;100.00;103445.19;6306476;22;20022;-84
2023/12/17 07:47:38;;;;;;;15.50;9.00;;;;;;;7.45;100.00;103442.66;6304751;22;20400;-82
2023/12/17 07:50:05;;;;;;;17.00;10.13;;;;;;;7.49;100.00;103445.88;6304736;22;20011;-84
2023/12/17 07:52:30;;;;;;;15.38;8.95;;;;;;;7.46;100.00;103443.50;6304471;22;20094;-83
2023/12/17 07:54:56;;;;;;;16.15;9.10;;;;;;;7.45;100.00;103447.97;6306249;22;20073;-83
2023/12/17 07:57:21;;;;;;;20.25;12.18;;;;;;;7.41;100.00;103437.72;6306132;22;20003;-84
2023/12/17 07:59:51;;;;;;;23.30;11.90;;;;;;;7.44;100.00;103442.78;6306252;22;20004;-82
2023/12/17 08:02:16;;;;;;;20.13;9.68;;;;;;;7.40;100.00;103439.53;6304611;22;20110;-83
2023/12/17 08:04:42;;;;;;;18.02;10.45;;;;;;;7.36;100.00;103431.94;6306254;22;20037;-83
2023/12/17 08:07:09;;;;;;;22.98;11.40;;;;;;;7.35;100.00;103430.25;6306125;22;20030;-86
2023/12/17 08:09:35;;;;;;;18.02;10.57;;;;;;;7.34;100.00;103436.53;6304355;22;20006;-84
2023/12/17 08:12:01;;;;;;;19.23;9.80;;;;;;;7.33;100.00;103438.38;6306097;22;20003;-87
2023/12/17 08:14:26;;;;;;;20.58;12.23;;;;;;;7.36;100.00;103442.59;6304747;22;19999;-87
2023/12/17 08:16:51;;;;;;;16.40;9.15;;;;;;;7.31;100.00;103450.13;6304691;22;20014;-87
2023/12/17 08:19:17;;;;;;;16.55;9.52;;;;;;;7.34;100.00;103445.38;6306328;22;20003;-88
2023/12/17 08:21:42;;;;;;;16.90;9.75;;;;;;;7.29;100.00;103444.06;6306124;22;20003;-85
2023/12/17 08:24:07;;;;;;;16.75;9.32;;;;;;;7.32;100.00;103430.50;6304509;22;20007;-84
2023/12/17 08:26:33;;;;;;;17.90;10.32;;;;;;;7.26;100.00;103434.53;6306164;22;20007;-82
2023/12/17 08:28:58;;;;;;;15.45;9.43;;;;;;;7.31;100.00;103448.28;6306000;22;20007;-82
2023/12/17 08:31:23;;;;;;;13.60;8.70;;;;;;;7.28;100.00;103440.56;6306099;22;20077;-83
2023/12/17 08:33:52;;;;;;;11.60;7.45;;;;;;;7.33;100.00;103448.16;6304297;22;20005;-86
2023/12/17 08:36:18;;;;;;;15.75;9.80;;;;;;;7.15;100.00;103453.19;6306009;22;19999;-85
2023/12/17 08:38:45;;;;;;;15.38;8.93;;;;;;;7.18;100.00;103444.94;6306117;22;20486;-85
2023/12/17 08:41:12;;;;;;;16.83;11.38;;;;;;;7.18;100.00;103450.28;6305968;22;19999;-85
2023/12/17 08:43:38;;;;;;;20.55;10.45;;;;;;;7.17;100.00;103451.25;6305966;22;20003;-84
2023/12/17 08:46:03;;;;;;;14.52;9.52;;;;;;;7.11;100.00;103468.56;6304264;22;20006;-82
2023/12/17 08:48:29;;;;;;;15.48;10.20;;;;;;;7.06;100.00;103451.31;6304569;22;20181;-87
2023/12/17 08:50:54;;;;;;;15.32;9.23;;;;;;;6.99;100.00;103445.66;6304391;22;20009;-86
2023/12/17 08:53:22;;;;;;;18.98;12.30;;;;;;;6.97;100.00;103444.94;6304146;22;20132;-86
2023/12/17 08:55:48;;;;;;;16.67;10.07;;;;;;;7.01;100.00;103450.84;6304265;22;20344;-87
2023/12/17 08:58:14;;;;;;;16.13;9.15;;;;;;;7.00;100.00;103463.28;6304300;22;20190;-86
2023/12/17 09:00:39;;;;;;;19.23;11.50;;;;;;;6.91;100.00;103450.72;6305949;22;20015;-85
2023/12/17 09:03:05;;;;;;;22.48;13.23;;;;;;;7.02;100.00;103461.34;6305960;22;20007;-85
2023/12/17 09:05:30;;;;;;;20.30;11.15;;;;;;;6.97;100.00;103468.03;6304369;22;20004;-85
2023/12/17 09:07:56;;;;;;;19.58;11.93;;;;;;;6.90;100.00;103462.34;6304087;22;20436;-87
2023/12/17 09:10:23;;;;;;;21.88;12.48;;;;;;;6.88;100.00;103456.31;6305769;22;20031;-87
2023/12/17 09:12:49;;;;;;;22.52;13.90;;;;;;;6.82;100.00;103449.66;6303999;22;20007;-86
2023/12/17 09:15:15;;;;;;;19.08;11.15;;;;;;;6.82;100.00;103460.31;6304034;22;20040;-84
2023/12/17 09:17:42;;;;;;;19.67;12.02;;;;;;;6.83;100.00;103453.19;6305675;22;20030;-82
2023/12/17 09:20:08;;;;;;;19.42;10.73;;;;;;;6.87;100.00;103462.59;6305805;22;20425;-83
2023/12/17 09:22:33;;;;;;;19.50;11.32;;;;;;;6.86;100.00;103460.06;6303561;22;20007;-84
2023/12/17 09:24:59;;;;;;;21.98;12.50;;;;;;;6.87;100.00;103459.94;6305882;22;20003;-84
2023/12/17 09:27:24;;;;;;;19.35;12.60;;;;;;;6.84;100.00;103460.19;6305989;22;20003;-82
2023/12/17 09:29:50;;;;;;;23.13;13.80;;;;;;;6.71;100.00;103467.47;6303962;22;20007;-82
2023/12/17 09:32:15;;;;;;;23.83;15.23;;;;;;;6.65;100.00;103462.63;6303906;22;20340;-83
2023/12/17 09:34:41;;;;;;;20.77;11.27;;;;;;;6.68;100.00;103454.44;6303925;22;20079;-84
2023/12/17 09:37:06;;;;;;;23.92;12.88;;;;;;;6.66;100.00;103467.00;6303861;22;20041;-82
2023/12/17 09:39:31;;;;;;;24.95;14.30;;;;;;;6.56;100.00;103444.78;6303910;22;20009;-84
2023/12/17 09:41:57;;;;;;;24.75;14.70;;;;;;;6.59;100.00;103452.50;6304020;22;20038;-84
2023/12/17 09:44:23;;;;;;;24.55;13.65;;;;;;;6.57;100.00;103462.41;6305675;22;19999;-84
2023/12/17 09:46:49;;;;;;;24.40;13.10;;;;;;;6.64;100.00;103458.28;6304202;22;20003;-84
2023/12/17 09:49:14;;;;;;;26.65;14.60;;;;;;;6.59;100.00;103469.28;6305564;22;20305;-84
2023/12/17 09:51:45;;;;;;;24.92;12.38;;;;;;;6.58;100.00;103467.59;6304108;22;20011;-86
2023/12/17 09:54:11;;;;;;;27.77;14.80;;;;;;;6.56;100.00;103472.19;6303820;22;20378;-84
2023/12/17 09:56:36;;;;;;;24.10;11.25;;;;;;;6.60;100.00;103470.13;6305234;22;20003;-83
2023/12/17 09:59:01;;;;;;;25.42;15.63;;;;;;;6.59;100.00;103463.13;6303800;22;20455;-84
2023/12/17 10:01:27;;;;;;;25.30;13.25;;;;;;;6.58;100.00;103458.78;6303801;22;20035;-85
2023/12/17 10:03:53;;;;;;;30.00;14.85;;;;;;;6.51;100.00;103456.63;6305415;22;20003;-84
2023/12/17 10:06:18;;;;;;;28.75;18.05;;;;;;;6.57;100.00;103452.63;6305749;22;20010;-83
2023/12/17 10:08:44;;;;;;;35.03;15.55;;;;;;;6.48;100.00;103453.38;6305442;22;20424;-85
2023/12/17 10:11:09;;;;;;;34.60;17.27;;;;;;;6.44;100.00;103450.13;6305316;22;20007;-84
2023/12/17 10:13:34;;;;;;;31.60;15.95;;;;;;;6.50;100.00;103462.91;6305154;22;20090;-89
2023/12/17 10:16:00;;;;;;;29.50;15.55;;;;;;;6.52;100.00;103460.97;6305547;22;20425;-86
2023/12/17 10:18:25;;;;;;;33.70;19.77;;;;;;;6.42;100.00;103468.00;6305451;22;20011;-83
2023/12/17 10:20:51;;;;;;;31.13;19.40;;;;;;;6.47;100.00;103471.13;6305425;22;20332;-83
2023/12/17 10:23:16;;;;;;;31.65;15.60;;;;;;;6.53;100.00;103478.59;6304098;22;20344;-83
2023/12/17 10:25:43;;;;;;;31.90;16.13;;;;;;;6.52;100.00;103478.72;6305268;22;20003;-83
2023/12/17 10:28:10;;;;;;;33.75;19.50;;;;;;;6.47;100.00;103471.13;6305295;22;20034;-83
2023/12/17 10:30:36;;;;;;;27.67;13.70;;;;;;;6.52;100.00;103471.59;6303967;22;19999;-86
2023/12/17 10:33:05;;;;;;;32.80;17.10;;;;;;;6.42;100.00;103461.84;6306272;22;20019;-84
2023/12/17 10:35:31;;;;;;;33.30;15.77;;;;;;;6.48;100.00;103464.84;6306652;22;20082;-88
2023/12/17 10:38:02;;;;;;;39.08;18.85;;;;;;;6.52;100.00;103457.47;6306628;22;20007;-85
2023/12/17 10:40:29;;;;;;;41.35;19.45;;;;;;;6.49;100.00;103455.91;6305305;22;20003;-84
2023/12/17 10:42:59;;;;;;;36.83;18.63;;;;;;;6.56;100.00;103469.53;6305144;22;20015;-82
2023/12/17 10:45:25;;;;;;;26.58;14.60;;;;;;;6.62;100.00;103446.94;6305652;22;19999;-84
2023/12/17 10:47:56;;;;;;;37.90;16.05;;;;;;;6.69;100.00;103442.84;6305246;22;20488;-87
2023/12/17 10:50:21;;;;;;;37.70;16.92;;;;;;;6.73;100.00;103441.59;6307122;22;19996;-86
2023/12/17 10:52:47;;;;;;;32.08;14.75;;;;;;;6.82;100.00;103441.69;6304673;22;20440;-88
2023/12/17 10:55:14;;;;;;;33.00;14.98;;;;;;;6.80;100.00;103446.28;6306674;22;20003;-86
2023/12/17 10:58:02;;;;;;;34.95;17.63;;;;;;;6.87;100.00;103440.47;6307000;22;20003;-88
2023/12/17 11:00:30;;;;;;;33.63;16.45;;;;;;;7.09;100.00;103427.09;6306165;22;20090;-85
2023/12/17 11:02:59;;;;;;;34.78;16.23;;;;;;;7.21;100.00;103427.88;6307035;22;20007;-86